Time;durP1;ratioP1;P1;durP2;ratioP2;P2;SDS_P1;SDS_P2;PMS_P1;PMS_P2;Temp;Humidity;BMP_temperature;BMP_pressure;BME280_temperature;BME280_humidity;BME280_pressure;Samples;Min_cycle;Max_cycle;Signal;HPM_P1;HPM_P2
2022/08/03 00:01:39;;;;;;;11.98;3.90;;;19.30;99.90;;;;;;5072232;28;20378;-63
2022/08/03 00:04:05;;;;;;;10.95;3.50;;;19.30;99.90;;;;;;5072052;28;20048;-63
2022/08/03 00:06:32;;;;;;;10.65;3.22;;;19.30;99.90;;;;;;5076211;28;20044;-63
2022/08/03 00:08:57;;;;;;;11.25;3.85;;;19.30;99.90;;;;;;5076076;28;20106;-62
2022/08/03 00:11:23;;;;;;;11.00;3.58;;;19.30;99.90;;;;;;5075827;28;20482;-62
2022/08/03 00:13:49;;;;;;;10.60;4.50;;;19.30;99.90;;;;;;5075944;28;20051;-63
2022/08/03 00:16:15;;;;;;;10.15;3.53;;;19.30;99.90;;;;;;5075833;28;20041;-62
2022/08/03 00:18:40;;;;;;;9.63;3.60;;;19.30;99.90;;;;;;5075868;28;20040;-62
2022/08/03 00:21:07;;;;;;;10.13;3.80;;;19.30;99.90;;;;;;5058592;28;20037;-63
2022/08/03 00:23:33;;;;;;;9.02;3.63;;;19.20;99.90;;;;;;5055703;28;20048;-62
2022/08/03 00:25:59;;;;;;;9.25;4.18;;;19.30;99.90;;;;;;5055686;28;20040;-62
2022/08/03 00:28:25;;;;;;;9.77;3.85;;;19.30;99.90;;;;;;5055648;28;20041;-62
2022/08/03 00:30:50;;;;;;;11.57;4.32;;;19.30;99.90;;;;;;5055577;28;20420;-62
2022/08/03 00:33:16;;;;;;;10.63;3.78;;;19.20;99.90;;;;;;5054417;28;20051;-63
2022/08/03 00:35:42;;;;;;;11.80;3.78;;;19.20;99.90;;;;;;5070906;28;20072;-62
2022/08/03 00:38:08;;;;;;;10.05;3.78;;;19.20;99.90;;;;;;5063666;28;20147;-62
2022/08/03 00:40:34;;;;;;;14.02;4.47;;;19.30;99.90;;;;;;5074097;28;20040;-63
2022/08/03 00:43:03;;;;;;;10.02;3.70;;;19.20;99.90;;;;;;5074045;28;20094;-62
2022/08/03 00:45:35;;;;;;;12.20;4.68;;;19.20;99.90;;;;;;5075454;28;20125;-63
2022/08/03 00:48:01;;;;;;;10.50;4.40;;;19.10;99.90;;;;;;5075420;28;20095;-62
2022/08/03 00:50:30;;;;;;;13.23;4.03;;;19.10;99.90;;;;;;5075405;28;20155;-62
2022/08/03 00:52:58;;;;;;;9.00;3.53;;;19.10;99.90;;;;;;5075418;28;20437;-63
2022/08/03 00:55:24;;;;;;;8.43;3.65;;;19.10;99.90;;;;;;5074965;28;20491;-63
2022/08/03 00:57:50;;;;;;;9.63;3.38;;;19.10;99.90;;;;;;5075308;28;20047;-62
2022/08/03 01:00:21;;;;;;;10.50;3.60;;;19.10;99.90;;;;;;5075059;28;20040;-62
2022/08/03 01:02:46;;;;;;;7.68;3.05;;;19.10;99.90;;;;;;5075131;28;20139;-62
2022/08/03 01:05:12;;;;;;;8.93;3.05;;;19.00;99.90;;;;;;5075107;28;20531;-63
2022/08/03 01:07:47;;;;;;;8.63;3.13;;;19.00;99.90;;;;;;5074994;28;20652;-62
2022/08/03 01:10:43;;;;;;;10.70;3.03;;;19.00;99.90;;;;;;5074830;28;20036;-62
2022/08/03 01:13:40;;;;;;;10.10;3.65;;;19.00;99.90;;;;;;5075006;28;20070;-62
2022/08/03 01:16:26;;;;;;;8.68;3.75;;;19.00;99.90;;;;;;5072090;28;20048;-63
2022/08/03 01:19:01;;;;;;;7.32;3.15;;;19.00;99.90;;;;;;5074940;28;20374;-62
2022/08/03 01:21:33;;;;;;;7.95;3.10;;;19.00;99.90;;;;;;5034913;28;20501;-61
2022/08/03 01:24:17;;;;;;;;;;;18.90;99.90;;;;;;5035356;28;20038;-62
2022/08/03 01:27:15;;;;;;;10.30;3.38;;;19.00;99.90;;;;;;5034670;28;19924;-63
2022/08/03 01:30:07;;;;;;;10.60;3.65;;;18.80;99.90;;;;;;5030542;28;20103;-63
2022/08/03 01:32:39;;;;;;;9.80;3.45;;;18.80;99.90;;;;;;5034609;28;20050;-62
2022/08/03 01:35:18;;;;;;;7.40;2.60;;;18.80;99.90;;;;;;5034323;28;20069;-62
2022/08/03 01:37:58;;;;;;;12.57;2.80;;;18.90;99.90;;;;;;5044001;28;20036;-63
2022/08/03 01:40:26;;;;;;;10.88;3.63;;;18.80;99.90;;;;;;5074499;28;20106;-63
2022/08/03 01:42:57;;;;;;;9.93;2.80;;;18.90;99.90;;;;;;5074315;28;20127;-63
2022/08/03 01:45:24;;;;;;;8.88;3.40;;;18.70;99.90;;;;;;5074162;28;20072;-62
2022/08/03 01:47:51;;;;;;;15.32;3.83;;;18.80;99.90;;;;;;5074175;28;20564;-64
2022/08/03 01:50:28;;;;;;;11.13;3.20;;;18.80;99.90;;;;;;5074396;28;20112;-62
2022/08/03 01:52:56;;;;;;;8.05;2.72;;;18.80;99.90;;;;;;5074203;28;20082;-62
2022/08/03 01:55:23;;;;;;;9.18;2.63;;;18.80;99.90;;;;;;5074101;28;20048;-63
2022/08/03 01:57:52;;;;;;;9.13;3.03;;;18.80;99.90;;;;;;5074005;28;20071;-63
2022/08/03 02:00:18;;;;;;;9.63;2.60;;;18.80;99.90;;;;;;5073944;28;20044;-63
2022/08/03 02:02:48;;;;;;;8.48;2.92;;;18.70;99.90;;;;;;5074090;28;20047;-63
2022/08/03 02:05:15;;;;;;;8.35;2.40;;;18.70;99.90;;;;;;5074053;28;20032;-63
2022/08/03 02:07:42;;;;;;;11.57;3.70;;;18.70;99.90;;;;;;5074009;28;20384;-62
2022/08/03 02:10:10;;;;;;;10.23;3.38;;;18.70;99.90;;;;;;5073978;28;20504;-62
2022/08/03 02:12:37;;;;;;;10.60;2.60;;;18.70;99.90;;;;;;5073698;28;20048;-62
2022/08/03 02:15:04;;;;;;;10.38;2.38;;;18.70;99.90;;;;;;5073874;28;20048;-62
2022/08/03 02:17:32;;;;;;;9.63;2.60;;;18.70;99.90;;;;;;5073962;28;20056;-62
2022/08/03 02:19:59;;;;;;;11.15;3.33;;;18.60;99.90;;;;;;5066009;28;20044;-63
2022/08/03 02:22:26;;;;;;;9.63;3.00;;;18.60;99.90;;;;;;5054055;28;20048;-63
2022/08/03 02:24:52;;;;;;;9.88;3.13;;;18.60;99.90;;;;;;5055881;28;20457;-62
2022/08/03 02:27:26;;;;;;;9.57;2.80;;;18.50;99.90;;;;;;5055151;28;20079;-63
2022/08/03 02:30:04;;;;;;;10.07;3.40;;;18.50;99.90;;;;;;5054448;28;20037;-61
2022/08/03 02:32:34;;;;;;;9.35;3.10;;;18.60;99.90;;;;;;5053572;28;20049;-62
2022/08/03 02:35:02;;;;;;;7.72;2.58;;;18.50;99.90;;;;;;5068679;28;20064;-62
2022/08/03 02:37:33;;;;;;;11.00;3.38;;;18.50;99.90;;;;;;5055807;28;20045;-62
2022/08/03 02:40:03;;;;;;;8.75;2.92;;;18.50;99.90;;;;;;5073410;28;20048;-62
2022/08/03 02:42:31;;;;;;;11.02;3.35;;;18.50;99.90;;;;;;5073151;28;20835;-62
2022/08/03 02:45:01;;;;;;;8.45;3.10;;;18.50;99.90;;;;;;5073120;28;20473;-63
2022/08/03 02:47:28;;;;;;;10.80;3.50;;;18.50;99.90;;;;;;5073121;28;20032;-63
2022/08/03 02:49:57;;;;;;;10.52;3.75;;;18.50;99.90;;;;;;5073179;28;20456;-63
2022/08/03 02:52:26;;;;;;;8.32;2.83;;;18.50;99.90;;;;;;5073210;28;20115;-62
2022/08/03 02:54:55;;;;;;;6.88;2.95;;;18.50;99.90;;;;;;5072829;28;20044;-62
2022/08/03 02:57:24;;;;;;;11.80;3.05;;;18.40;99.90;;;;;;5072935;28;20048;-62
2022/08/03 02:59:51;;;;;;;10.52;2.85;;;18.40;99.90;;;;;;5072858;28;20366;-63
2022/08/03 03:02:18;;;;;;;9.88;2.70;;;18.40;99.90;;;;;;5072720;28;20036;-63
2022/08/03 03:04:44;;;;;;;8.20;2.92;;;18.40;99.90;;;;;;5072765;28;20374;-62
2022/08/03 03:07:12;;;;;;;9.35;3.08;;;18.40;99.90;;;;;;5072979;28;20040;-63
2022/08/03 03:09:38;;;;;;;8.60;2.63;;;18.30;99.90;;;;;;5072837;28;20066;-62
2022/08/03 03:12:07;;;;;;;10.00;2.75;;;18.30;99.90;;;;;;5072634;28;20040;-63
2022/08/03 03:14:33;;;;;;;9.43;2.65;;;18.30;99.90;;;;;;5072645;28;20048;-63
2022/08/03 03:17:00;;;;;;;10.25;3.00;;;18.30;99.90;;;;;;5072483;28;20484;-63
2022/08/03 03:19:26;;;;;;;8.20;2.75;;;18.30;99.90;;;;;;5068772;28;20388;-62
2022/08/03 03:21:54;;;;;;;9.50;2.40;;;18.30;99.90;;;;;;5052650;28;20036;-62
2022/08/03 03:24:20;;;;;;;10.25;2.88;;;18.30;99.90;;;;;;5052290;28;20049;-63
2022/08/03 03:26:47;;;;;;;9.60;2.70;;;18.20;99.90;;;;;;5052446;28;20044;-61
2022/08/03 03:29:14;;;;;;;12.18;3.90;;;18.20;99.90;;;;;;5052474;28;20087;-63
2022/08/03 03:31:40;;;;;;;11.55;3.72;;;18.20;99.90;;;;;;5052396;28;20094;-63
2022/08/03 03:34:06;;;;;;;10.35;3.50;;;18.30;99.90;;;;;;5052231;28;20428;-62
2022/08/03 03:36:31;;;;;;;11.05;2.92;;;18.20;99.90;;;;;;5052496;28;20081;-63
2022/08/03 03:38:57;;;;;;;9.45;2.70;;;18.20;99.90;;;;;;5066698;28;20190;-63
2022/08/03 03:41:23;;;;;;;10.75;3.63;;;18.20;99.90;;;;;;5072107;28;20094;-62
2022/08/03 03:43:49;;;;;;;9.43;2.92;;;18.20;99.90;;;;;;5072067;28;20036;-63
2022/08/03 03:46:15;;;;;;;9.90;2.70;;;18.20;99.90;;;;;;5072222;28;20043;-63
2022/08/03 03:48:41;;;;;;;8.90;2.90;;;18.20;99.90;;;;;;5072389;28;20037;-62
2022/08/03 03:51:08;;;;;;;10.02;2.90;;;18.10;99.90;;;;;;5072311;28;20037;-63
2022/08/03 03:53:34;;;;;;;10.45;2.85;;;18.20;99.90;;;;;;5072241;28;20102;-63
2022/08/03 03:55:59;;;;;;;9.23;2.97;;;18.20;99.90;;;;;;5072054;28;20044;-62
2022/08/03 03:58:25;;;;;;;8.27;3.15;;;18.20;99.90;;;;;;5072156;28;20037;-63
2022/08/03 04:00:52;;;;;;;13.05;3.30;;;18.10;99.90;;;;;;5072047;28;20111;-62
2022/08/03 04:03:18;;;;;;;11.60;3.35;;;18.20;99.90;;;;;;5071912;28;20056;-63
2022/08/03 04:11:35;;;;;;;11.30;3.42;;;18.10;99.90;;;;;;5070883;28;20049;-62
2022/08/03 04:14:24;;;;;;;10.68;2.97;;;18.10;99.90;;;;;;5072034;28;20076;-62
2022/08/03 04:16:57;;;;;;;8.07;3.30;;;18.20;99.90;;;;;;5071975;28;20037;-63
2022/08/03 04:19:46;;;;;;;8.95;3.00;;;18.20;99.90;;;;;;5068836;28;20041;-63
2022/08/03 04:22:16;;;;;;;11.18;3.08;;;18.20;99.90;;;;;;5051963;28;20051;-63
2022/08/03 04:24:49;;;;;;;9.48;2.75;;;18.20;99.90;;;;;;5066924;28;20123;-61
2022/08/03 04:27:24;;;;;;;13.13;4.05;;;18.20;99.90;;;;;;5051545;28;20041;-62
2022/08/03 04:29:52;;;;;;;11.77;3.78;;;18.30;99.90;;;;;;5051800;28;20095;-63
2022/08/03 04:32:19;;;;;;;8.02;3.10;;;18.20;99.90;;;;;;5051618;28;20409;-61
2022/08/03 04:34:45;;;;;;;14.23;3.67;;;18.30;99.90;;;;;;5051821;28;20061;-62
2022/08/03 04:37:16;;;;;;;9.10;3.40;;;18.30;99.90;;;;;;5052058;28;20447;-62
2022/08/03 04:39:43;;;;;;;15.75;3.50;;;18.30;99.90;;;;;;5071825;28;20175;-63
2022/08/03 04:42:12;;;;;;;8.13;2.80;;;18.40;99.90;;;;;;5071597;28;20047;-62
2022/08/03 04:44:41;;;;;;;8.93;3.40;;;18.40;99.90;;;;;;5071731;28;20110;-63
2022/08/03 04:47:07;;;;;;;11.27;3.45;;;18.40;99.90;;;;;;5071854;28;20101;-63
2022/08/03 04:49:35;;;;;;;10.93;3.05;;;18.40;99.90;;;;;;5071601;28;20545;-63
2022/08/03 04:52:01;;;;;;;13.93;3.55;;;18.50;99.90;;;;;;5074553;28;20049;-63
2022/08/03 04:54:27;;;;;;;8.45;3.20;;;18.50;99.90;;;;;;5075297;28;20044;-63
2022/08/03 04:56:52;;;;;;;8.70;3.22;;;18.50;99.90;;;;;;5075236;28;20129;-62
2022/08/03 04:59:18;;;;;;;10.60;3.45;;;18.60;99.90;;;;;;5073739;28;20066;-62
2022/08/03 05:01:44;;;;;;;10.10;3.75;;;18.70;99.90;;;;;;5074122;28;20047;-63
2022/08/03 05:04:10;;;;;;;12.55;3.20;;;18.70;99.90;;;;;;5075098;28;20064;-62
2022/08/03 05:06:35;;;;;;;9.60;3.40;;;18.80;99.90;;;;;;5075054;28;20155;-62
2022/08/03 05:09:01;;;;;;;12.10;3.75;;;18.90;99.90;;;;;;5076480;28;20047;-63
2022/08/03 05:11:27;;;;;;;10.32;3.13;;;18.90;99.90;;;;;;5076337;28;20044;-63
2022/08/03 05:13:53;;;;;;;11.30;3.55;;;18.90;99.90;;;;;;5077248;28;20040;-63
2022/08/03 05:16:19;;;;;;;11.88;3.38;;;19.00;99.90;;;;;;5073764;28;20060;-62
2022/08/03 05:18:45;;;;;;;11.68;3.70;;;19.00;99.90;;;;;;5075006;28;20407;-62
2022/08/03 05:21:15;;;;;;;12.10;3.35;;;19.00;99.90;;;;;;5056863;28;20041;-62
2022/08/03 05:23:41;;;;;;;9.52;3.65;;;19.10;99.90;;;;;;5053350;28;20045;-62
2022/08/03 05:26:07;;;;;;;12.25;3.22;;;19.10;99.90;;;;;;5054070;28;20067;-62
2022/08/03 05:28:32;;;;;;;13.15;3.38;;;19.20;99.90;;;;;;5053863;28;20037;-62
2022/08/03 05:30:58;;;;;;;9.82;3.40;;;19.20;99.90;;;;;;5053824;28;20119;-62
2022/08/03 05:33:24;;;;;;;11.32;3.42;;;19.30;99.90;;;;;;5053683;28;20080;-62
2022/08/03 05:35:49;;;;;;;10.55;3.38;;;19.40;99.90;;;;;;5053493;28;20061;-62
2022/08/03 05:38:15;;;;;;;13.70;3.60;;;19.50;99.90;;;;;;5062628;28;20037;-63
2022/08/03 05:40:41;;;;;;;7.72;2.97;;;19.40;99.90;;;;;;5073653;28;20463;-62
2022/08/03 05:43:07;;;;;;;11.65;3.47;;;19.50;99.90;;;;;;5073344;28;20091;-62
2022/08/03 05:45:32;;;;;;;12.73;3.78;;;19.50;99.90;;;;;;5073706;28;20417;-63
2022/08/03 05:47:58;;;;;;;12.52;3.85;;;19.60;99.90;;;;;;5073586;28;20041;-62
2022/08/03 05:50:24;;;;;;;12.52;3.45;;;19.60;99.90;;;;;;5073605;28;20054;-63
2022/08/03 05:52:49;;;;;;;10.25;3.28;;;19.70;99.90;;;;;;5073360;28;20044;-62
2022/08/03 05:55:15;;;;;;;9.57;3.10;;;19.60;99.90;;;;;;5073113;28;20047;-62
2022/08/03 05:57:41;;;;;;;13.43;3.60;;;19.80;99.90;;;;;;5073343;28;20052;-62
2022/08/03 06:00:09;;;;;;;8.27;2.72;;;19.90;99.90;;;;;;5072825;28;20071;-61
2022/08/03 06:02:35;;;;;;;9.80;3.25;;;19.90;99.90;;;;;;5070772;28;20055;-62
2022/08/03 06:05:01;;;;;;;9.95;3.35;;;19.90;99.90;;;;;;5072885;28;20116;-62
2022/08/03 06:07:27;;;;;;;10.50;3.67;;;20.00;99.90;;;;;;5073080;28;20467;-62
2022/08/03 06:09:53;;;;;;;13.98;3.75;;;20.00;99.90;;;;;;5072780;28;20089;-62
2022/08/03 06:12:19;;;;;;;12.50;3.50;;;20.10;99.90;;;;;;5071675;28;20381;-62
2022/08/03 06:14:44;;;;;;;12.10;3.30;;;20.20;99.90;;;;;;5072848;28;20456;-62
2022/08/03 06:17:10;;;;;;;13.57;3.10;;;20.30;99.90;;;;;;5072941;28;20029;-63
2022/08/03 06:19:36;;;;;;;11.65;3.58;;;20.30;99.90;;;;;;5067795;28;20557;-62
2022/08/03 06:22:02;;;;;;;13.70;3.67;;;20.40;99.90;;;;;;5052624;28;20049;-62
2022/08/03 06:24:28;;;;;;;9.85;3.92;;;20.40;99.90;;;;;;5052684;28;20044;-63
2022/08/03 06:26:53;;;;;;;10.23;3.33;;;20.40;99.90;;;;;;5052712;28;20411;-63
2022/08/03 06:29:19;;;;;;;11.95;3.50;;;20.50;99.90;;;;;;5052953;28;20044;-55
2022/08/03 06:31:45;;;;;;;12.00;3.40;;;20.50;99.90;;;;;;5052268;28;20397;-53
2022/08/03 06:34:11;;;;;;;12.05;3.28;;;20.60;99.90;;;;;;5052405;28;20047;-56
2022/08/03 06:36:36;;;;;;;15.57;3.50;;;20.70;99.90;;;;;;5052448;28;20045;-55
2022/08/03 06:39:03;;;;;;;11.57;3.97;;;20.70;99.90;;;;;;5067737;28;20047;-56
2022/08/03 06:41:28;;;;;;;11.10;3.35;;;20.80;99.90;;;;;;5071776;28;20107;-53
2022/08/03 06:43:54;;;;;;;14.65;3.70;;;20.70;99.90;;;;;;5072038;28;20076;-55
2022/08/03 06:46:21;;;;;;;13.35;3.70;;;20.80;99.90;;;;;;5071950;28;20111;-56
2022/08/03 06:48:47;;;;;;;13.75;3.97;;;20.90;99.90;;;;;;5072111;28;20564;-56
2022/08/03 06:51:12;;;;;;;11.70;3.50;;;20.90;99.90;;;;;;5072260;28;20123;-55
2022/08/03 06:53:38;;;;;;;14.52;3.80;;;21.00;99.90;;;;;;5071935;28;20119;-52
2022/08/03 06:56:05;;;;;;;15.93;4.72;;;21.00;99.90;;;;;;5071897;28;20582;-55
2022/08/03 06:58:30;;;;;;;9.95;3.47;;;21.10;99.90;;;;;;5071208;28;20443;-56
2022/08/03 07:00:56;;;;;;;11.80;3.60;;;21.10;99.90;;;;;;5069563;28;20048;-55
2022/08/03 07:03:22;;;;;;;11.10;3.47;;;21.10;99.90;;;;;;5071205;28;20051;-55
2022/08/03 07:05:48;;;;;;;16.73;3.75;;;21.10;99.90;;;;;;5071734;28;20510;-54
2022/08/03 07:08:14;;;;;;;13.65;4.15;;;21.30;99.90;;;;;;5071752;28;20105;-55
2022/08/03 07:10:40;;;;;;;14.55;3.50;;;21.30;99.90;;;;;;5071764;28;20048;-55
2022/08/03 07:13:06;;;;;;;13.45;3.72;;;21.40;99.90;;;;;;5071767;28;20037;-56
2022/08/03 07:15:32;;;;;;;11.02;3.80;;;21.50;99.90;;;;;;5071174;28;20054;-53
2022/08/03 07:17:58;;;;;;;13.43;3.80;;;21.60;99.90;;;;;;5071143;28;20049;-55
2022/08/03 07:20:24;;;;;;;13.73;3.45;;;21.80;99.90;;;;;;5059974;28;20125;-56
2022/08/03 07:22:49;;;;;;;10.52;3.13;;;21.90;99.90;;;;;;5051357;28;20072;-55
2022/08/03 07:25:15;;;;;;;13.27;3.83;;;22.00;99.90;;;;;;5067028;28;20147;-55
2022/08/03 07:27:45;;;;;;;14.50;4.07;;;22.00;99.90;;;;;;5051739;28;20033;-56
2022/08/03 07:30:11;;;;;;;7.78;3.08;;;22.10;99.90;;;;;;5051747;28;20037;-53
2022/08/03 07:32:37;;;;;;;12.88;3.28;;;22.10;99.90;;;;;;5051755;28;20409;-56
2022/08/03 07:35:05;;;;;;;13.30;3.60;;;22.10;99.90;;;;;;5050982;28;20646;-55
2022/08/03 07:37:31;;;;;;;13.50;3.38;;;22.20;99.90;;;;;;5054224;28;20045;-54
2022/08/03 07:39:58;;;;;;;10.93;3.75;;;22.20;99.90;;;;;;5071335;28;20129;-54
2022/08/03 07:42:25;;;;;;;10.15;3.60;;;22.30;99.90;;;;;;5071487;28;20045;-54
2022/08/03 07:44:51;;;;;;;12.05;3.53;;;22.30;99.90;;;;;;5071316;28;20528;-53
2022/08/03 07:47:23;;;;;;;13.35;3.45;;;22.40;99.90;;;;;;5071302;28;20123;-52
2022/08/03 07:49:49;;;;;;;12.00;4.05;;;22.60;99.90;;;;;;5070991;28;20044;-54
2022/08/03 07:54:59;;;;;;;10.70;4.53;;;22.60;99.90;;;;;;5071179;28;20044;-54
2022/08/03 07:57:25;;;;;;;12.52;4.10;;;22.60;99.90;;;;;;5071281;28;20045;-51
2022/08/03 07:59:50;;;;;;;12.95;3.97;;;22.70;99.90;;;;;;5071383;28;20166;-55
2022/08/03 08:02:16;;;;;;;12.48;3.78;;;22.70;99.90;;;;;;5070802;28;20047;-55
2022/08/03 08:04:42;;;;;;;12.93;4.25;;;22.70;99.90;;;;;;5070969;28;20044;-54
2022/08/03 08:07:08;;;;;;;11.32;3.97;;;22.80;99.90;;;;;;5071552;28;20041;-55
2022/08/03 08:09:34;;;;;;;12.45;3.92;;;22.90;99.90;;;;;;5070669;28;20504;-53
2022/08/03 08:11:59;;;;;;;11.65;4.53;;;22.80;99.90;;;;;;5071595;28;20124;-54
2022/08/03 08:14:25;;;;;;;12.95;4.68;;;22.90;99.90;;;;;;5070545;28;20074;-54
2022/08/03 08:16:51;;;;;;;12.50;4.60;;;22.80;99.90;;;;;;5071578;28;20182;-54
2022/08/03 08:19:16;;;;;;;13.27;4.40;;;22.70;99.90;;;;;;5069327;28;20469;-53
2022/08/03 08:21:43;;;;;;;12.52;4.55;;;22.90;99.90;;;;;;5052079;28;20556;-55
2022/08/03 08:24:09;;;;;;;9.82;4.38;;;23.00;99.90;;;;;;5051693;28;20140;-52
2022/08/03 08:26:35;;;;;;;14.10;5.10;;;23.00;99.90;;;;;;5054121;28;20121;-53
2022/08/03 08:29:00;;;;;;;13.20;4.65;;;23.10;99.90;;;;;;5055763;28;20120;-54
2022/08/03 08:31:26;;;;;;;11.65;5.18;;;23.30;99.90;;;;;;5055775;28;20041;-55
2022/08/03 08:33:52;;;;;;;12.00;5.50;;;23.10;99.90;;;;;;5055646;28;20554;-53
2022/08/03 08:36:17;;;;;;;12.85;5.85;;;23.00;99.90;;;;;;5055469;28;20409;-54
2022/08/03 08:38:43;;;;;;;13.65;6.07;;;22.90;99.90;;;;;;5068676;28;20075;-52
2022/08/03 08:41:13;;;;;;;13.07;5.72;;;23.00;99.90;;;;;;5074188;28;20598;-55
2022/08/03 08:43:40;;;;;;;10.27;5.97;;;23.00;99.90;;;;;;5075283;28;20045;-51
2022/08/03 08:46:10;;;;;;;13.13;5.80;;;23.10;99.90;;;;;;5075416;28;20112;-53
2022/08/03 08:48:41;;;;;;;15.48;6.53;;;23.30;99.90;;;;;;5075286;28;20477;-54
2022/08/03 08:51:08;;;;;;;13.13;6.57;;;23.10;99.90;;;;;;5075493;28;20086;-54
2022/08/03 08:53:36;;;;;;;11.70;6.18;;;23.30;99.90;;;;;;5074129;28;20052;-57
2022/08/03 08:56:03;;;;;;;15.35;6.45;;;23.50;99.90;;;;;;5075368;28;20412;-56
2022/08/03 08:58:35;;;;;;;14.27;6.50;;;23.50;99.90;;;;;;5075103;28;20572;-53
2022/08/03 09:01:01;;;;;;;11.80;6.03;;;23.50;99.90;;;;;;5073663;28;20044;-52
2022/08/03 09:03:27;;;;;;;12.52;5.68;;;23.50;99.90;;;;;;5074796;28;20080;-52
2022/08/03 09:05:54;;;;;;;15.30;6.55;;;23.50;99.90;;;;;;5075222;28;20068;-52
2022/08/03 09:08:21;;;;;;;13.35;6.22;;;23.60;99.90;;;;;;5075081;28;20041;-53
2022/08/03 09:10:47;;;;;;;16.38;6.10;;;23.70;99.90;;;;;;5073859;28;20115;-52
2022/08/03 09:13:13;;;;;;;13.98;5.60;;;23.90;99.90;;;;;;5074885;28;20131;-49
2022/08/03 09:15:41;;;;;;;14.05;5.35;;;24.00;99.90;;;;;;5074782;28;20546;-50
2022/08/03 09:18:08;;;;;;;13.95;5.20;;;24.10;99.90;;;;;;5074810;28;20056;-53
2022/08/03 09:20:35;;;;;;;14.43;5.72;;;24.10;99.90;;;;;;5060785;28;20105;-54
2022/08/03 09:23:03;;;;;;;15.02;6.90;;;24.30;99.90;;;;;;5054748;28;20116;-52
2022/08/03 09:25:30;;;;;;;15.43;7.32;;;24.30;99.90;;;;;;5054474;28;20409;-54
2022/08/03 09:28:09;;;;;;;15.05;6.78;;;24.00;99.90;;;;;;5054599;28;20044;-52
2022/08/03 09:30:37;;;;;;;14.63;6.13;;;24.10;99.90;;;;;;5054780;28;20032;-52
2022/08/03 09:33:08;;;;;;;14.43;6.68;;;24.40;99.90;;;;;;5054871;28;20041;-53
2022/08/03 09:35:43;;;;;;;16.73;6.78;;;24.20;99.90;;;;;;5054448;28;20498;-51
2022/08/03 09:38:22;;;;;;;14.00;6.60;;;24.30;99.90;;;;;;5061529;28;20131;-52
2022/08/03 09:40:49;;;;;;;13.45;6.22;;;24.20;99.90;;;;;;5074697;28;20048;-49
2022/08/03 09:43:15;;;;;;;13.02;5.90;;;24.40;99.90;;;;;;5074515;28;20044;-54
2022/08/03 09:45:43;;;;;;;15.77;7.00;;;24.60;99.90;;;;;;5074441;28;20094;-53
2022/08/03 09:48:28;;;;;;;15.27;6.53;;;24.60;99.90;;;;;;5074212;28;20450;-53
2022/08/03 09:50:57;;;;;;;15.68;6.82;;;24.50;99.90;;;;;;5074044;28;20089;-53
2022/08/03 09:53:23;;;;;;;15.48;7.68;;;24.50;99.90;;;;;;5074121;28;20094;-54
2022/08/03 09:55:54;;;;;;;14.10;7.25;;;24.50;99.90;;;;;;5074285;28;20094;-54
2022/08/03 09:58:21;;;;;;;14.45;6.75;;;24.60;99.90;;;;;;5072977;28;20056;-52
2022/08/03 10:00:59;;;;;;;16.38;7.45;;;24.60;99.90;;;;;;5073907;28;20040;-53
2022/08/03 10:03:28;;;;;;;11.45;6.13;;;24.70;99.90;;;;;;5073530;28;20124;-50
2022/08/03 10:05:54;;;;;;;17.88;6.90;;;24.90;99.90;;;;;;5074013;28;20686;-54
2022/08/03 10:08:21;;;;;;;18.58;7.55;;;25.00;99.90;;;;;;5074074;28;20029;-54
2022/08/03 10:10:49;;;;;;;17.00;7.00;;;24.90;99.90;;;;;;5073844;28;20571;-52
2022/08/03 10:13:17;;;;;;;14.98;7.68;;;25.00;99.90;;;;;;5073765;28;20056;-54
2022/08/03 10:15:43;;;;;;;16.85;7.22;;;24.80;99.90;;;;;;5073669;28;20044;-53
2022/08/03 10:18:09;;;;;;;13.48;6.05;;;25.20;99.90;;;;;;5073842;28;20036;-53
2022/08/03 10:20:52;;;;;;;15.02;6.95;;;25.10;99.90;;;;;;5060427;28;20071;-53
2022/08/03 10:23:18;;;;;;;15.13;6.72;;;24.80;99.90;;;;;;5051992;28;20045;-53
2022/08/03 10:25:53;;;;;;;19.63;6.80;;;25.10;99.90;;;;;;5053122;28;20118;-54
2022/08/03 10:28:20;;;;;;;17.85;7.15;;;25.40;99.90;;;;;;5053503;28;20044;-54
2022/08/03 10:30:51;;;;;;;13.10;6.60;;;25.30;99.90;;;;;;5053557;28;20037;-52
2022/08/03 10:33:24;;;;;;;14.53;7.10;;;25.10;99.90;;;;;;5053364;28;20041;-53
2022/08/03 10:35:55;;;;;;;15.57;6.03;;;25.00;99.90;;;;;;5052924;28;20114;-53
2022/08/03 10:38:31;;;;;;;18.10;6.43;;;25.30;99.90;;;;;;5058720;28;20077;-53
2022/08/03 10:41:00;;;;;;;14.40;5.50;;;25.30;99.90;;;;;;5039211;28;20041;-53
2022/08/03 10:43:35;;;;;;;17.95;6.70;;;25.70;99.90;;;;;;5046768;28;20044;-54
2022/08/03 10:46:05;;;;;;;12.65;5.18;;;25.70;99.90;;;;;;5041115;28;20385;-52
2022/08/03 10:48:31;;;;;;;14.68;5.78;;;25.90;99.90;;;;;;5045566;28;20108;-54
2022/08/03 10:50:57;;;;;;;14.25;5.75;;;25.90;99.90;;;;;;5041115;28;20037;-52
2022/08/03 10:53:38;;;;;;;18.83;6.90;;;25.90;99.90;;;;;;5041192;28;20103;-54
2022/08/03 10:58:52;;;;;;;17.85;6.20;;;26.00;99.90;;;;;;5038451;28;20544;-54
2022/08/03 11:01:38;;;;;;;17.52;7.22;;;25.90;99.90;;;;;;5047116;28;20049;-54
2022/08/03 11:04:04;;;;;;;15.07;6.88;;;25.90;99.90;;;;;;5052662;28;20059;-53
2022/08/03 11:06:30;;;;;;;18.08;6.90;;;25.90;99.90;;;;;;5052816;28;20116;-53
2022/08/03 11:09:11;;;;;;;16.77;7.25;;;26.10;99.90;;;;;;5052746;28;20041;-53
2022/08/03 11:11:38;;;;;;;17.85;8.10;;;26.00;99.90;;;;;;5052843;28;20037;-54
2022/08/03 11:14:08;;;;;;;20.27;9.40;;;25.90;99.90;;;;;;5051490;28;20124;-52
2022/08/03 11:16:40;;;;;;;19.15;8.70;;;25.60;99.90;;;;;;5051359;28;20124;-54
2022/08/03 11:19:11;;;;;;;18.65;8.70;;;25.70;99.90;;;;;;5051716;28;20037;-50
2022/08/03 11:21:49;;;;;;;17.48;7.43;;;25.90;99.90;;;;;;5032666;28;20080;-53
2022/08/03 11:24:33;;;;;;;16.85;8.00;;;26.00;99.90;;;;;;5032218;28;20057;-52
2022/08/03 11:27:21;;;;;;;18.45;7.70;;;26.00;99.90;;;;;;5030764;28;20053;-51
2022/08/03 11:29:57;;;;;;;18.95;8.57;;;26.00;99.90;;;;;;5032238;28;20045;-53
2022/08/03 11:32:46;;;;;;;17.13;7.97;;;26.10;99.90;;;;;;5032347;28;20041;-53
2022/08/03 11:35:17;;;;;;;15.75;6.60;;;26.30;99.90;;;;;;5047335;28;20054;-53
2022/08/03 11:37:58;;;;;;;19.25;7.75;;;26.10;99.90;;;;;;5041814;28;20064;-50
2022/08/03 11:40:36;;;;;;;19.77;8.40;;;26.20;99.90;;;;;;5072357;28;20397;-49
2022/08/03 11:43:02;;;;;;;19.73;7.53;;;26.20;99.90;;;;;;5071025;28;20533;-50
2022/08/03 11:45:30;;;;;;;15.48;7.60;;;26.10;99.90;;;;;;5072186;28;20481;-50
2022/08/03 11:47:57;;;;;;;18.42;7.50;;;26.10;99.90;;;;;;5036457;28;20052;-49
2022/08/03 11:50:23;;;;;;;21.80;6.85;;;26.10;99.90;;;;;;5032228;28;20497;-49
2022/08/03 11:52:49;;;;;;;18.77;6.55;;;26.30;99.90;;;;;;5032193;28;20046;-51
2022/08/03 11:55:19;;;;;;;16.08;6.40;;;26.40;99.90;;;;;;5032090;28;20049;-50
2022/08/03 11:57:46;;;;;;;18.20;6.47;;;26.30;99.90;;;;;;5032232;28;20134;-53
2022/08/03 12:00:24;;;;;;;18.98;7.93;;;26.40;99.90;;;;;;5034974;28;20050;-52
2022/08/03 12:03:11;;;;;;;16.08;7.13;;;26.50;99.90;;;;;;5044024;28;20045;-51
2022/08/03 12:05:42;;;;;;;17.08;7.32;;;26.50;99.90;;;;;;5044604;28;20044;-51
2022/08/03 12:08:10;;;;;;;20.27;6.90;;;26.10;99.90;;;;;;5042645;28;20033;-49
2022/08/03 12:10:37;;;;;;;21.10;7.10;;;26.40;99.90;;;;;;5041613;28;20129;-49
2022/08/03 12:13:10;;;;;;;17.23;6.65;;;26.50;99.90;;;;;;5040227;28;20053;-49
2022/08/03 12:15:37;;;;;;;17.38;6.78;;;26.40;99.90;;;;;;5040139;28;20076;-51
2022/08/03 12:18:12;;;;;;;17.80;6.95;;;26.40;99.90;;;;;;5041607;28;20461;-52
2022/08/03 12:20:38;;;;;;;19.77;7.30;;;26.50;99.90;;;;;;5040107;28;20112;-49
2022/08/03 12:23:05;;;;;;;15.77;6.93;;;26.40;99.90;;;;;;5038882;28;20495;-50
2022/08/03 12:25:32;;;;;;;18.88;8.48;;;26.60;99.90;;;;;;5041968;28;20033;-55
2022/08/03 12:28:10;;;;;;;17.30;7.70;;;26.70;99.90;;;;;;5048016;28;20560;-55
2022/08/03 12:30:37;;;;;;;19.48;8.50;;;26.80;99.90;;;;;;5051796;28;20041;-54
2022/08/03 12:33:21;;;;;;;18.85;8.82;;;26.80;99.90;;;;;;5051826;28;20120;-53
2022/08/03 12:36:06;;;;;;;14.85;5.40;;;26.80;99.90;;;;;;5051564;28;20057;-55
2022/08/03 12:38:36;;;;;;;17.88;5.32;;;26.70;99.90;;;;;;5063082;28;20071;-54
2022/08/03 12:41:05;;;;;;;19.95;5.78;;;26.60;99.90;;;;;;5071842;28;20382;-52
2022/08/03 12:43:31;;;;;;;17.67;6.05;;;26.90;99.90;;;;;;5053993;28;20048;-54
2022/08/03 12:46:15;;;;;;;16.75;6.00;;;27.00;99.90;;;;;;5051563;28;20543;-55
2022/08/03 12:49:00;;;;;;;17.95;6.25;;;26.80;99.90;;;;;;5051672;28;20492;-53
2022/08/03 12:51:27;;;;;;;17.80;5.85;;;26.50;99.90;;;;;;5050485;28;20080;-55
2022/08/03 12:53:55;;;;;;;16.00;5.90;;;26.80;99.90;;;;;;5051478;28;20080;-49
2022/08/03 12:56:20;;;;;;;21.35;6.03;;;26.80;99.90;;;;;;5051457;28;20064;-51
2022/08/03 12:58:46;;;;;;;19.13;6.70;;;26.70;99.90;;;;;;5051606;28;20607;-54